createdAt,value
2022-09-12T00:01:51.871Z,13.10
2022-09-12T00:04:24.005Z,13.10
2022-09-12T00:06:57.705Z,13.10
2022-09-12T00:09:29.799Z,13.10
2022-09-12T00:12:02.036Z,13.00
2022-09-12T00:14:35.217Z,13.00
2022-09-12T00:17:07.136Z,12.90
2022-09-12T00:19:39.393Z,12.90
2022-09-12T00:22:11.319Z,12.90
2022-09-12T00:24:43.381Z,12.90
2022-09-12T00:27:15.435Z,12.90
2022-09-12T00:29:47.678Z,12.90
2022-09-12T00:32:20.078Z,12.90
2022-09-12T00:34:52.591Z,12.90
2022-09-12T00:37:24.575Z,12.90
2022-09-12T00:39:57.459Z,12.90
2022-09-12T00:42:29.529Z,12.90
2022-09-12T00:45:01.634Z,12.90
2022-09-12T00:47:35.743Z,12.80
2022-09-12T00:50:12.534Z,12.80
2022-09-12T00:52:45.425Z,12.80
2022-09-12T00:55:31.431Z,12.80
2022-09-12T00:58:16.884Z,12.80
2022-09-12T01:00:53.931Z,12.80
2022-09-12T01:03:27.508Z,12.70
2022-09-12T01:06:26.018Z,12.70
2022-09-12T01:09:03.904Z,12.70
2022-09-12T01:11:38.556Z,12.70
2022-09-12T01:14:10.926Z,12.70
2022-09-12T01:16:45.847Z,12.70
2022-09-12T01:19:36.350Z,12.70
2022-09-12T01:22:47.280Z,12.60
2022-09-12T01:26:16.583Z,12.60
2022-09-12T01:29:19.883Z,12.60
2022-09-12T01:32:23.668Z,12.60
2022-09-12T01:35:16.626Z,12.60
2022-09-12T01:38:15.102Z,12.60
2022-09-12T01:41:06.591Z,12.60
2022-09-12T01:43:54.991Z,12.60
2022-09-12T01:46:59.662Z,12.50
2022-09-12T01:49:46.341Z,12.60
2022-09-12T01:52:52.154Z,12.50
2022-09-12T01:55:33.774Z,12.40
2022-09-12T01:58:45.571Z,12.40
2022-09-12T02:01:30.712Z,12.40
2022-09-12T02:04:14.909Z,12.30
2022-09-12T02:06:59.877Z,12.30
2022-09-12T02:09:50.567Z,12.40
2022-09-12T02:12:34.627Z,12.30
2022-09-12T02:15:17.237Z,12.40
2022-09-12T02:17:54.246Z,12.30
2022-09-12T02:20:49.306Z,12.30
2022-09-12T02:23:29.166Z,12.30
2022-09-12T02:26:10.507Z,12.30
2022-09-12T02:28:51.961Z,12.30
2022-09-12T02:31:27.808Z,12.30
2022-09-12T02:34:31.015Z,12.30
2022-09-12T02:37:47.677Z,12.30
2022-09-12T02:40:39.964Z,12.30
2022-09-12T02:43:49.852Z,12.30
2022-09-12T02:46:28.452Z,12.30
2022-09-12T02:49:09.418Z,12.20
2022-09-12T02:51:41.859Z,12.20
2022-09-12T02:54:15.806Z,12.20
2022-09-12T02:56:48.638Z,12.20
2022-09-12T02:59:23.617Z,12.20
2022-09-12T03:02:15.023Z,12.20
2022-09-12T03:05:24.953Z,12.10
2022-09-12T03:08:41.176Z,12.10
2022-09-12T03:11:44.812Z,12.10
2022-09-12T03:15:01.717Z,12.10
2022-09-12T03:17:51.696Z,12.00
2022-09-12T03:21:02.012Z,12.00
2022-09-12T03:24:12.510Z,11.90
2022-09-12T03:27:29.976Z,11.90
2022-09-12T03:30:06.993Z,11.80
2022-09-12T03:32:47.291Z,11.80
2022-09-12T03:35:24.219Z,11.80
2022-09-12T03:37:56.395Z,11.70
2022-09-12T03:40:28.336Z,11.70
2022-09-12T03:43:00.407Z,11.70
2022-09-12T03:45:32.942Z,11.70
2022-09-12T03:48:06.293Z,11.70
2022-09-12T03:50:39.015Z,11.70
2022-09-12T03:53:14.072Z,11.60
2022-09-12T03:55:48.958Z,11.60
2022-09-12T03:58:21.180Z,11.60
2022-09-12T04:00:53.332Z,11.60
2022-09-12T04:03:25.492Z,11.60
2022-09-12T04:05:58.086Z,11.50
2022-09-12T04:08:29.995Z,11.50
2022-09-12T04:11:14.477Z,11.40
2022-09-12T04:13:47.179Z,11.40
2022-09-12T04:16:19.646Z,11.40
2022-09-12T04:18:51.740Z,11.30
2022-09-12T04:21:25.236Z,11.30
2022-09-12T04:23:57.213Z,11.30
2022-09-12T04:26:29.828Z,11.30
2022-09-12T04:29:02.535Z,11.30
2022-09-12T04:31:34.761Z,11.20
2022-09-12T04:34:07.059Z,11.20
2022-09-12T04:36:39.600Z,11.20
2022-09-12T04:39:12.121Z,11.20
2022-09-12T04:41:44.169Z,11.20
2022-09-12T04:44:16.702Z,11.20
2022-09-12T04:46:48.967Z,11.20
2022-09-12T04:49:20.920Z,11.20
2022-09-12T04:51:55.160Z,11.20
2022-09-12T04:54:27.205Z,11.20
2022-09-12T04:56:59.911Z,11.20
2022-09-12T04:59:36.237Z,11.20
2022-09-12T05:02:09.085Z,11.10
2022-09-12T05:04:41.618Z,11.10
2022-09-12T05:07:13.559Z,11.10
2022-09-12T05:09:45.849Z,11.10
2022-09-12T05:12:17.829Z,11.10
2022-09-12T05:14:49.865Z,11.00
2022-09-12T05:17:22.641Z,11.00
2022-09-12T05:19:55.729Z,11.00
2022-09-12T05:22:28.028Z,11.10
2022-09-12T05:25:00.049Z,11.00
2022-09-12T05:27:32.163Z,11.00
2022-09-12T05:30:05.066Z,11.10
2022-09-12T05:32:37.676Z,11.10
2022-09-12T05:35:09.752Z,11.10
2022-09-12T05:37:43.294Z,11.10
2022-09-12T05:40:17.805Z,11.10
2022-09-12T05:42:50.307Z,11.10
2022-09-12T05:45:22.298Z,11.20
2022-09-12T05:47:54.368Z,11.20
2022-09-12T05:50:26.887Z,11.20
2022-09-12T05:52:59.466Z,11.30
2022-09-12T05:55:33.226Z,11.30
2022-09-12T05:58:05.553Z,11.40
2022-09-12T06:00:38.069Z,11.50
2022-09-12T06:03:10.932Z,11.50
2022-09-12T06:05:43.768Z,11.60
2022-09-12T06:08:18.289Z,11.70
2022-09-12T06:10:50.294Z,11.90
2022-09-12T06:13:22.252Z,12.10
2022-09-12T06:15:54.447Z,12.40
2022-09-12T06:18:30.181Z,12.60
2022-09-12T06:21:08.344Z,12.90
2022-09-12T06:23:42.695Z,13.30
2022-09-12T06:26:18.507Z,13.80
2022-09-12T06:28:56.053Z,14.20
2022-09-12T06:31:33.141Z,14.70
2022-09-12T06:34:08.921Z,15.30
2022-09-12T06:36:49.889Z,15.80
2022-09-12T06:39:23.228Z,16.40
2022-09-12T06:41:55.490Z,17.40
2022-09-12T06:44:27.901Z,18.10
2022-09-12T06:47:00.543Z,18.70
2022-09-12T06:49:34.628Z,19.50
2022-09-12T06:52:07.349Z,19.90
2022-09-12T06:54:39.739Z,20.40
2022-09-12T06:57:11.708Z,20.70
2022-09-12T06:59:43.857Z,21.20
2022-09-12T07:02:16.254Z,22.00
2022-09-12T07:04:49.982Z,22.80
2022-09-12T07:07:22.588Z,23.60
2022-09-12T07:09:57.637Z,24.00
2022-09-12T07:12:30.091Z,24.30
2022-09-12T07:15:01.971Z,24.80
2022-09-12T07:17:34.154Z,24.50
2022-09-12T07:20:06.801Z,24.60
2022-09-12T07:22:39.172Z,24.80
2022-09-12T07:25:53.212Z,25.00
2022-09-12T07:28:28.672Z,25.10
2022-09-12T07:31:14.558Z,25.30
2022-09-12T07:33:53.694Z,25.70
2022-09-12T07:36:26.678Z,25.70
2022-09-12T07:38:59.056Z,26.10
2022-09-12T07:41:33.894Z,26.20
2022-09-12T07:44:08.610Z,26.20
2022-09-12T07:46:40.658Z,25.80
2022-09-12T07:49:12.682Z,25.70
2022-09-12T07:51:44.633Z,25.70
2022-09-12T07:54:16.784Z,25.80
2022-09-12T07:56:49.057Z,26.10
2022-09-12T07:59:35.628Z,26.30
2022-09-12T08:02:17.261Z,26.20
2022-09-12T08:04:49.972Z,26.00
2022-09-12T08:07:22.546Z,25.90
2022-09-12T08:09:54.958Z,26.10
2022-09-12T08:12:29.387Z,26.40
2022-09-12T08:15:03.349Z,26.30
2022-09-12T08:17:35.718Z,26.40
2022-09-12T08:20:07.844Z,26.40
2022-09-12T08:22:40.745Z,26.20
2022-09-12T08:25:14.378Z,26.10
2022-09-12T08:27:46.893Z,25.80
2022-09-12T08:30:19.079Z,25.60
2022-09-12T08:32:51.212Z,25.50
2022-09-12T08:35:23.164Z,25.40
2022-09-12T08:37:55.234Z,25.40
2022-09-12T08:40:28.131Z,25.20
2022-09-12T08:43:14.069Z,25.00
2022-09-12T08:46:09.552Z,24.90
2022-09-12T08:48:48.432Z,24.60
2022-09-12T08:51:20.871Z,24.30
2022-09-12T08:53:56.356Z,24.20
2022-09-12T08:56:36.249Z,24.00
2022-09-12T08:59:09.687Z,23.80
2022-09-12T09:01:44.693Z,23.70
2022-09-12T09:04:35.069Z,23.60
2022-09-12T09:07:55.595Z,23.50
2022-09-12T09:10:55.573Z,23.50
2022-09-12T09:14:26.771Z,23.30
2022-09-12T09:17:31.180Z,23.30
2022-09-12T09:20:32.333Z,23.20
2022-09-12T09:23:21.745Z,23.20
2022-09-12T09:26:15.164Z,23.20
2022-09-12T09:29:18.394Z,23.30
2022-09-12T09:31:57.716Z,23.30
2022-09-12T09:34:32.140Z,23.20
2022-09-12T09:37:07.614Z,23.30
2022-09-12T09:40:02.298Z,23.30
2022-09-12T09:42:54.198Z,23.30
2022-09-12T09:45:37.462Z,23.40
2022-09-12T09:48:10.215Z,23.50
2022-09-12T09:51:07.051Z,23.50
2022-09-12T09:53:53.763Z,23.60
2022-09-12T09:56:42.437Z,23.60
2022-09-12T09:59:35.529Z,23.70
2022-09-12T10:02:13.688Z,23.70
2022-09-12T10:04:59.027Z,23.80
2022-09-12T10:07:31.136Z,23.80
2022-09-12T10:10:16.233Z,23.80
2022-09-12T10:12:51.388Z,23.90
2022-09-12T10:15:38.954Z,23.90
2022-09-12T10:18:38.448Z,23.80
2022-09-12T10:21:32.142Z,23.90
2022-09-12T10:24:21.492Z,23.90
2022-09-12T10:27:27.933Z,24.00
2022-09-12T10:30:05.835Z,24.00
2022-09-12T10:32:54.014Z,24.10
2022-09-12T10:35:49.584Z,24.10
2022-09-12T10:38:23.200Z,24.10
2022-09-12T10:41:03.590Z,24.10
2022-09-12T10:43:42.335Z,24.10
2022-09-12T10:46:23.716Z,24.20
2022-09-12T10:49:24.805Z,24.20
2022-09-12T10:52:20.422Z,24.30
2022-09-12T10:54:54.795Z,24.30
2022-09-12T10:58:01.974Z,24.40
2022-09-12T11:01:06.321Z,24.50
2022-09-12T11:04:37.757Z,24.60
2022-09-12T11:07:35.817Z,24.70
2022-09-12T11:10:35.616Z,24.80
2022-09-12T11:13:57.710Z,24.90
2022-09-12T11:16:56.383Z,25.10
2022-09-12T11:20:38.994Z,25.20
2022-09-12T11:24:02.397Z,25.30
2022-09-12T11:27:04.383Z,25.60
2022-09-12T11:30:06.823Z,25.80
2022-09-12T11:33:31.434Z,26.00
2022-09-12T11:36:49.715Z,26.10
2022-09-12T11:39:45.322Z,26.30
2022-09-12T11:42:26.132Z,26.40
2022-09-12T11:45:15.549Z,26.50
2022-09-12T11:47:59.899Z,26.70
2022-09-12T11:50:38.799Z,26.80
2022-09-12T11:53:23.836Z,26.90
2022-09-12T11:56:10.016Z,27.00
2022-09-12T11:59:09.586Z,27.00
2022-09-12T12:01:54.786Z,27.10
2022-09-12T12:04:39.889Z,27.30
2022-09-12T12:07:25.187Z,27.40
2022-09-12T12:09:57.613Z,27.50
2022-09-12T12:12:29.882Z,27.60
2022-09-12T12:15:02.416Z,27.70
2022-09-12T12:17:34.953Z,27.70
2022-09-12T12:20:20.314Z,27.70
2022-09-12T12:22:55.050Z,27.90
2022-09-12T12:25:41.272Z,28.00
2022-09-12T12:28:44.361Z,28.00
2022-09-12T12:31:28.222Z,28.00
2022-09-12T12:34:05.538Z,28.20
2022-09-12T12:36:52.287Z,28.20
2022-09-12T12:39:51.154Z,28.30
2022-09-12T12:42:37.289Z,28.30
2022-09-12T12:45:29.133Z,28.30
2022-09-12T12:48:20.313Z,28.30
2022-09-12T12:50:54.027Z,28.30
2022-09-12T12:53:45.863Z,28.40
2022-09-12T12:56:34.685Z,28.50
2022-09-12T12:59:22.842Z,28.60
2022-09-12T13:01:58.491Z,28.70
2022-09-12T13:04:32.775Z,28.80
2022-09-12T13:07:11.997Z,28.80
2022-09-12T13:09:53.362Z,28.90
2022-09-12T13:12:43.288Z,28.80
2022-09-12T13:15:48.164Z,28.90
2022-09-12T13:18:29.166Z,29.10
2022-09-12T13:21:13.454Z,29.20
2022-09-12T13:24:04.428Z,29.40
2022-09-12T13:26:57.776Z,29.50
2022-09-12T13:29:29.755Z,29.70
2022-09-12T13:32:03.131Z,29.70
2022-09-12T13:34:46.047Z,29.70
2022-09-12T13:37:50.843Z,29.60
2022-09-12T13:41:27.419Z,29.60
2022-09-12T13:44:14.824Z,29.60
2022-09-12T13:46:49.913Z,29.70
2022-09-12T13:49:38.596Z,29.70
2022-09-12T13:52:30.733Z,29.60
2022-09-12T13:55:31.323Z,29.50
2022-09-12T13:58:17.310Z,29.40
2022-09-12T14:01:09.771Z,29.40
2022-09-12T14:04:04.467Z,29.40
2022-09-12T14:06:57.019Z,29.40
2022-09-12T14:09:38.509Z,29.40
2022-09-12T14:12:32.400Z,29.30
2022-09-12T14:15:19.626Z,29.50
2022-09-12T14:18:01.767Z,29.50
2022-09-12T14:20:39.409Z,29.50
2022-09-12T14:23:30.275Z,29.60
2022-09-12T14:26:06.072Z,29.60
2022-09-12T14:28:46.323Z,29.60
2022-09-12T14:31:33.082Z,29.50
2022-09-12T14:34:19.624Z,29.40
2022-09-12T14:36:55.947Z,29.40
2022-09-12T14:39:39.057Z,29.40
2022-09-12T14:42:20.973Z,29.50
2022-09-12T14:45:20.360Z,29.50
2022-09-12T14:47:59.703Z,29.40
2022-09-12T14:50:35.882Z,29.30
2022-09-12T14:53:24.007Z,29.20
2022-09-12T14:56:07.290Z,29.20
2022-09-12T14:58:43.209Z,29.20
2022-09-12T15:01:15.302Z,29.30
2022-09-12T15:03:56.394Z,29.10
2022-09-12T15:06:36.523Z,28.90
2022-09-12T15:09:13.465Z,28.90
2022-09-12T15:11:45.471Z,29.00
2022-09-12T15:14:17.758Z,29.00
2022-09-12T15:16:49.730Z,29.00
2022-09-12T15:19:21.788Z,29.00
2022-09-12T15:21:53.917Z,29.00
2022-09-12T15:24:25.936Z,29.00
2022-09-12T15:26:58.497Z,29.10
2022-09-12T15:29:30.538Z,29.10
2022-09-12T15:32:02.812Z,29.10
2022-09-12T15:34:35.889Z,29.00
2022-09-12T15:37:14.127Z,28.90
2022-09-12T15:39:47.366Z,28.80
2022-09-12T15:42:28.390Z,28.70
2022-09-12T15:45:02.560Z,28.60
2022-09-12T15:47:55.188Z,28.60
2022-09-12T15:50:28.187Z,28.50
2022-09-12T15:53:00.439Z,28.40
2022-09-12T15:55:32.956Z,28.30
2022-09-12T15:58:07.364Z,28.30
2022-09-12T16:00:40.279Z,28.20
2022-09-12T16:03:25.390Z,28.20
2022-09-12T16:06:01.570Z,28.00
2022-09-12T16:11:22.183Z,27.80
2022-09-12T16:13:56.927Z,27.80
2022-09-12T16:16:28.998Z,27.60
2022-09-12T16:19:01.404Z,27.40
2022-09-12T16:21:34.035Z,27.20
2022-09-12T16:24:06.935Z,27.10
2022-09-12T16:26:39.429Z,27.00
2022-09-12T16:29:13.903Z,26.90
2022-09-12T16:31:46.337Z,26.80
2022-09-12T16:34:18.409Z,26.70
2022-09-12T16:36:50.371Z,26.40
2022-09-12T16:39:22.454Z,26.20
2022-09-12T16:41:54.723Z,26.00
2022-09-12T16:44:26.887Z,25.90
2022-09-12T16:46:59.247Z,25.80
2022-09-12T16:49:31.323Z,25.70
2022-09-12T16:52:03.695Z,25.50
2022-09-12T16:54:37.261Z,25.30
2022-09-12T16:57:09.606Z,25.10
2022-09-12T17:02:15.243Z,24.80
2022-09-12T17:04:47.325Z,24.70
2022-09-12T17:07:19.957Z,24.50
2022-09-12T17:09:52.066Z,24.40
2022-09-12T17:12:24.343Z,24.30
2022-09-12T17:14:56.629Z,24.10
2022-09-12T17:17:29.534Z,24.10
2022-09-12T17:20:01.620Z,24.00
2022-09-12T17:22:34.908Z,24.00
2022-09-12T17:25:07.553Z,23.90
2022-09-12T17:27:40.224Z,23.80
2022-09-12T17:30:12.544Z,23.70
2022-09-12T17:32:44.814Z,23.60
2022-09-12T17:35:16.974Z,23.40
2022-09-12T17:37:49.037Z,23.30
2022-09-12T17:40:32.614Z,23.10
2022-09-12T17:43:16.555Z,23.00
2022-09-12T17:45:57.455Z,22.80
2022-09-12T17:48:29.749Z,22.60
2022-09-12T17:51:15.137Z,22.50
2022-09-12T17:56:20.363Z,22.10
2022-09-12T17:58:54.706Z,21.90
2022-09-12T18:01:48.238Z,21.80
2022-09-12T18:04:48.499Z,21.60
2022-09-12T18:07:22.252Z,21.50
2022-09-12T18:09:55.203Z,21.30
2022-09-12T18:12:27.823Z,21.20
2022-09-12T18:15:00.053Z,21.10
2022-09-12T18:17:33.592Z,21.00
2022-09-12T18:20:06.709Z,20.90
2022-09-12T18:22:39.706Z,20.80
2022-09-12T18:25:13.512Z,20.70
2022-09-12T18:27:45.960Z,20.60
2022-09-12T18:30:22.206Z,20.50
2022-09-12T18:32:54.689Z,20.40
2022-09-12T18:35:27.180Z,20.40
2022-09-12T18:38:00.187Z,20.30
2022-09-12T18:40:33.699Z,20.20
2022-09-12T18:43:07.263Z,20.10
2022-09-12T18:45:41.587Z,20.10
2022-09-12T18:48:14.139Z,20.10
2022-09-12T18:50:47.264Z,20.00
2022-09-12T18:53:20.047Z,19.90
2022-09-12T18:55:52.200Z,19.90
2022-09-12T18:58:31.045Z,19.80
2022-09-12T19:01:14.835Z,19.80
2022-09-12T19:03:50.444Z,19.70
2022-09-12T19:06:26.813Z,19.70
2022-09-12T19:09:05.320Z,19.60
2022-09-12T19:11:48.705Z,19.50
2022-09-12T19:14:23.708Z,19.50
2022-09-12T19:16:57.879Z,19.40
2022-09-12T19:19:30.316Z,19.30
2022-09-12T19:22:02.949Z,19.30
2022-09-12T19:24:36.807Z,19.20
2022-09-12T19:27:09.494Z,19.10
2022-09-12T19:29:43.911Z,19.10
2022-09-12T19:32:16.081Z,19.00
2022-09-12T19:34:48.600Z,18.90
2022-09-12T19:37:21.019Z,18.90
2022-09-12T19:39:53.312Z,18.80
2022-09-12T19:42:25.851Z,18.70
2022-09-12T19:44:58.303Z,18.70
2022-09-12T19:47:31.489Z,18.70
2022-09-12T19:50:04.486Z,18.60
2022-09-12T19:52:37.099Z,18.50
2022-09-12T19:55:10.405Z,18.50
2022-09-12T19:57:42.797Z,18.40
2022-09-12T20:00:15.387Z,18.30
2022-09-12T20:02:53.027Z,18.30
2022-09-12T20:05:26.198Z,18.20
2022-09-12T20:07:58.665Z,18.20
2022-09-12T20:10:31.009Z,18.10
2022-09-12T20:13:03.101Z,18.10
2022-09-12T20:15:36.488Z,18.00
2022-09-12T20:18:08.876Z,18.00
2022-09-12T20:20:41.014Z,18.00
2022-09-12T20:23:13.221Z,17.90
2022-09-12T20:25:45.611Z,17.90
2022-09-12T20:28:18.022Z,17.90
2022-09-12T20:30:50.262Z,17.90
2022-09-12T20:33:22.364Z,17.90
2022-09-12T20:36:01.473Z,18.00
2022-09-12T20:38:37.454Z,17.90
2022-09-12T20:41:11.501Z,17.90
2022-09-12T20:43:43.584Z,17.90
2022-09-12T20:46:18.618Z,17.90
2022-09-12T20:48:54.843Z,17.90
2022-09-12T20:51:27.549Z,17.90
2022-09-12T20:54:03.583Z,17.80
2022-09-12T20:56:37.828Z,17.80
2022-09-12T20:59:12.160Z,17.70
2022-09-12T21:01:44.373Z,17.70
2022-09-12T21:04:16.653Z,17.60
2022-09-12T21:06:49.355Z,17.50
2022-09-12T21:09:21.854Z,17.50
2022-09-12T21:11:53.826Z,17.50
2022-09-12T21:14:25.949Z,17.40
2022-09-12T21:16:57.981Z,17.30
2022-09-12T21:19:30.252Z,17.30
2022-09-12T21:22:02.441Z,17.20
2022-09-12T21:24:34.763Z,17.10
2022-09-12T21:27:07.029Z,17.10
2022-09-12T21:29:39.137Z,17.00
2022-09-12T21:32:14.067Z,17.00
2022-09-12T21:34:46.833Z,16.90
2022-09-12T21:37:18.852Z,16.90
2022-09-12T21:39:51.014Z,16.80
2022-09-12T21:42:23.451Z,16.80
2022-09-12T21:44:56.262Z,16.70
2022-09-12T21:47:28.518Z,16.70
2022-09-12T21:50:00.555Z,16.60
2022-09-12T21:52:33.508Z,16.60
2022-09-12T21:55:07.810Z,16.50
2022-09-12T21:57:43.262Z,16.50
2022-09-12T22:00:16.377Z,16.50
2022-09-12T22:02:49.039Z,16.40
2022-09-12T22:05:22.245Z,16.40
2022-09-12T22:07:55.954Z,16.40
2022-09-12T22:10:28.418Z,16.30
2022-09-12T22:13:00.935Z,16.30
2022-09-12T22:15:41.199Z,16.20
2022-09-12T22:18:14.779Z,16.20
2022-09-12T22:20:46.701Z,16.10
2022-09-12T22:23:37.206Z,16.10
2022-09-12T22:26:30.190Z,16.10
2022-09-12T22:29:14.596Z,16.00
2022-09-12T22:31:46.626Z,16.00
2022-09-12T22:34:18.834Z,16.00
2022-09-12T22:36:50.946Z,15.90
2022-09-12T22:39:23.875Z,15.90
2022-09-12T22:42:01.636Z,15.90
2022-09-12T22:44:35.638Z,15.90
2022-09-12T22:47:07.701Z,15.90
2022-09-12T22:49:39.750Z,15.90
2022-09-12T22:52:11.833Z,15.90
2022-09-12T22:54:45.213Z,15.90
2022-09-12T22:57:17.699Z,15.90
2022-09-12T22:59:50.187Z,15.90
2022-09-12T23:02:23.202Z,15.80
2022-09-12T23:04:55.267Z,15.80
2022-09-12T23:07:27.120Z,15.80
2022-09-12T23:09:59.289Z,15.70
2022-09-12T23:12:31.963Z,15.70
2022-09-12T23:15:04.739Z,15.70
2022-09-12T23:17:37.323Z,15.70
2022-09-12T23:20:09.507Z,15.70
2022-09-12T23:22:41.693Z,15.70
2022-09-12T23:25:13.778Z,15.60
2022-09-12T23:27:45.771Z,15.60
2022-09-12T23:30:21.669Z,15.60
2022-09-12T23:32:55.595Z,15.60
2022-09-12T23:35:27.528Z,15.70
2022-09-12T23:37:59.421Z,15.70
2022-09-12T23:40:32.254Z,15.70
2022-09-12T23:43:04.210Z,15.70
2022-09-12T23:45:36.205Z,15.70
2022-09-12T23:48:08.530Z,15.70
2022-09-12T23:50:42.856Z,15.70
2022-09-12T23:53:17.709Z,15.70
2022-09-12T23:55:50.178Z,15.70
2022-09-12T23:58:25.347Z,15.70
